Weather reports worldwide

Advertisment
Cairngorm, United Kingdom (3065): temperature & dewpoint: 22.05.2017 19:00:00 - 28.05.2017 19:00:00 (BST)Cairngorm, United Kingdom (3065): temperature 5cm: 22.05.2017 19:00:00 - 28.05.2017 19:00:00 (BST)Cairngorm, United Kingdom (3065): wind speed & gusts: 22.05.2017 19:00:00 - 28.05.2017 19:00:00 (BST)Cairngorm, United Kingdom (3065): wind direction: 22.05.2017 19:00:00 - 28.05.2017 19:00:00 (BST)Cairngorm, United Kingdom (3065): visibility: 22.05.2017 19:00:00 - 28.05.2017 19:00:00 (BST)Cairngorm, United Kingdom (3065): precipitation: 22.05.2017 19:00:00 - 28.05.2017 19:00:00 (BST)
Date & Time tt [°C] td [°C] tt 5cm [°C] ff [km/h] ff [kn] fx [km/h] fx [kn] dd vv [km] rr [mm]
28.05.2017 19:00:00 5,6 4,1 - 9 5 - - N - -
28.05.2017 18:00:00 5,6 4,1 - 13 7 - - NW - -
28.05.2017 17:00:00 6,0 5,5 - 22 12 - - NW - -
28.05.2017 16:00:00 5,9 5,3 - 21 11 - - WNW - -
28.05.2017 15:00:00 5,5 4,9 - 35 19 - - WNW - -
28.05.2017 14:00:00 5,7 5,5 - 34 18 - - WNW - -
28.05.2017 13:00:00 5,5 5,5 - 28 15 46 25 WNW - -
28.05.2017 12:00:00 5,6 5,6 - 42 23 63 34 WNW - -
28.05.2017 11:00:00 5,9 5,9 - 57 31 68 37 WNW - -
28.05.2017 10:00:00 6,3 6,3 - 54 29 65 35 WNW - -
28.05.2017 09:00:00 6,3 6,3 - 57 31 74 40 W - -
28.05.2017 08:00:00 6,4 6,4 - 67 36 74 40 W - -
28.05.2017 07:00:00 6,9 6,9 - 59 32 76 41 W - -
28.05.2017 06:00:00 7,8 7,8 - 52 28 61 33 W - -
28.05.2017 05:00:00 8,3 8,3 - 52 28 59 32 W - -
28.05.2017 04:00:00 8,4 8,4 - 48 26 57 31 W - -
28.05.2017 03:00:00 8,7 8,7 - 46 25 52 28 WNW - -
28.05.2017 02:00:00 9,5 9,5 - 29 16 - - WNW - -
28.05.2017 01:00:00 9,4 9,4 - 29 16 - - WNW - -
28.05.2017 00:00:00 9,8 9,8 - 21 11 - - WNW - -
27.05.2017 23:00:00 10,0 10,0 - 18 10 - - WNW - -
27.05.2017 22:00:00 9,2 9,2 - 37 20 59 32 SSE - -
27.05.2017 21:00:00 10,4 10,4 - 11 6 - - NNW - -
27.05.2017 20:00:00 10,6 10,2 - 11 6 - - NW - -
27.05.2017 19:00:00 12,5 7,7 - 8 4 - - SE - -
27.05.2017 18:00:00 12,7 7,5 - 26 14 - - SSE - -
27.05.2017 17:00:00 12,5 6,6 - 28 15 - - SSE - -
27.05.2017 16:00:00 13,1 8,5 - 34 18 - - SE - -
27.05.2017 15:00:00 13,4 7,7 - 28 15 - - SE - -
27.05.2017 14:00:00 13,3 8,3 - 31 17 65 35 SSE - -
27.05.2017 13:00:00 14,2 6,1 - 48 26 67 36 SE - -
27.05.2017 12:00:00 13,8 7,6 - 34 18 59 32 SE - -
27.05.2017 11:00:00 12,4 8,9 - 44 24 68 37 SE - -
27.05.2017 10:00:00 11,8 8,7 - 39 21 54 29 SE - -
27.05.2017 09:00:00 10,8 8,6 - 24 13 - - SSE - -
27.05.2017 08:00:00 11,1 7,0 - 18 10 - - S - -
27.05.2017 07:00:00 10,8 8,7 - 16 9 - - SSW - -
27.05.2017 06:00:00 10,7 8,3 - 21 11 - - SSW - -
27.05.2017 05:00:00 10,8 10,0 - 24 13 54 29 SSE - -
27.05.2017 04:00:00 11,6 9,9 - 37 20 55 30 S - -
27.05.2017 03:00:00 12,0 9,4 - 50 27 68 37 S - -
27.05.2017 02:00:00 11,8 9,9 - 59 32 70 38 SSE - -
27.05.2017 01:00:00 11,3 10,3 - 55 30 72 39 SSE - -
27.05.2017 00:00:00 11,9 9,7 - 59 32 80 43 SSE - -
26.05.2017 23:00:00 11,8 10,0 - 57 31 74 40 SSE - -
26.05.2017 22:00:00 11,8 10,2 - 46 25 61 33 SE - -
26.05.2017 21:00:00 12,7 10,1 - 41 22 68 37 SSE - -
26.05.2017 20:00:00 13,5 10,0 - 42 23 72 39 SE - -
26.05.2017 19:00:00 14,3 9,0 - 61 33 76 41 SSE - -
26.05.2017 18:00:00 14,6 8,0 - 54 29 68 37 SSE - -
26.05.2017 17:00:00 14,9 8,7 - 50 27 76 41 SSE - -
26.05.2017 16:00:00 15,1 9,8 - 59 32 80 43 SSE - -
26.05.2017 15:00:00 14,8 8,5 - 65 35 78 42 SSE - -
26.05.2017 14:00:00 14,4 9,3 - 61 33 76 41 SSE - -
26.05.2017 13:00:00 14,3 8,3 - 59 32 74 40 SSE - -
26.05.2017 12:00:00 13,6 9,6 - 57 31 78 42 SSE - -
26.05.2017 11:00:00 13,3 9,9 - 61 33 94 51 SSE - -
26.05.2017 10:00:00 12,5 9,8 12,9 63 34 81 44 SSE - 1,1
26.05.2017 09:00:00 11,8 10,4 - 65 35 83 45 SSE - -
26.05.2017 08:00:00 11,1 11,1 - 76 41 83 45 SSE - -
26.05.2017 07:00:00 11,4 10,7 - 68 37 81 44 SSE - -
26.05.2017 06:00:00 11,1 10,8 - 68 37 81 44 SSE - -
26.05.2017 05:00:00 11,7 10,4 - 68 37 80 43 SSE - -
26.05.2017 04:00:00 12,2 10,3 - 68 37 85 46 S - -
26.05.2017 03:00:00 12,2 10,1 - 70 38 - - S - -
26.05.2017 02:00:00 12,1 10,3 - 76 41 89 48 S - -
26.05.2017 01:00:00 12,3 11,3 - 67 36 80 43 S - -
26.05.2017 00:00:00 11,7 11,7 - 48 26 65 35 SSE - -
25.05.2017 23:00:00 12,0 12,0 - 41 22 52 28 SSE - -
25.05.2017 22:00:00 12,3 11,7 - 34 18 - - SSE - -
25.05.2017 21:00:00 13,5 9,6 - 24 13 - - S - -
25.05.2017 20:00:00 14,2 8,7 - 28 15 - - S - -
25.05.2017 19:00:00 14,9 7,5 - 34 18 - - S - -
25.05.2017 18:00:00 15,5 7,0 - 29 16 - - S - -
25.05.2017 17:00:00 15,9 7,6 - 34 18 46 25 S - -
25.05.2017 16:00:00 15,6 6,2 - 31 17 - - S - -
25.05.2017 15:00:00 15,5 6,2 - 22 12 - - S - -
25.05.2017 14:00:00 15,7 3,8 - 18 10 - - SSW - -
25.05.2017 13:00:00 15,3 5,3 - 18 10 - - S - -
25.05.2017 12:00:00 15,3 5,4 - 15 8 - - S - -
25.05.2017 11:00:00 13,7 5,0 - 8 4 - - SW - -
25.05.2017 10:00:00 13,5 4,9 - 13 7 - - SSW 0,3 -
25.05.2017 09:00:00 12,1 2,7 - 16 9 - - WSW - -
25.05.2017 08:00:00 11,1 4,0 - 18 10 - - W - -
25.05.2017 07:00:00 10,8 5,4 - 22 12 - - W - -
25.05.2017 06:00:00 10,5 6,6 - 26 14 - - W - -
25.05.2017 05:00:00 10,1 9,3 - 34 18 - - W - -
25.05.2017 04:00:00 9,2 8,4 - 31 17 52 28 W - -
25.05.2017 03:00:00 6,5 6,5 - 39 21 54 29 W - -
25.05.2017 02:00:00 6,9 6,9 - 46 25 65 35 W - -
25.05.2017 01:00:00 7,0 7,0 - 55 30 68 37 W - -
25.05.2017 00:00:00 7,1 7,1 - 50 27 78 42 W - -
24.05.2017 23:00:00 7,2 7,2 - 68 37 89 48 W - -
24.05.2017 22:00:00 7,4 7,4 - 57 31 74 40 WSW 0,3 -
24.05.2017 21:00:00 7,8 7,8 - 35 19 55 30 WSW - -
24.05.2017 20:00:00 8,0 8,0 - 26 14 59 32 WSW - -
24.05.2017 19:00:00 8,7 7,7 - 37 20 57 31 WSW - -
24.05.2017 18:00:00 8,8 7,2 - 44 24 63 34 WSW - -
24.05.2017 17:00:00 8,8 7,8 - 37 20 63 34 WSW - -
24.05.2017 16:00:00 9,0 8,0 - 42 23 61 33 WSW - -
24.05.2017 15:00:00 9,8 8,8 - 41 22 67 36 SW - -
24.05.2017 14:00:00 9,9 9,0 - 44 24 61 33 WSW - -
24.05.2017 13:00:00 8,8 8,8 - 39 21 57 31 WSW - -
24.05.2017 12:00:00 8,8 8,8 - 44 24 76 41 WSW - -
24.05.2017 11:00:00 8,4 8,4 - 54 29 85 46 WSW - -
24.05.2017 10:00:00 8,0 8,0 8,0 70 38 85 46 WSW - 0,3
24.05.2017 09:00:00 7,4 7,4 - 72 39 98 53 WSW - -
24.05.2017 08:00:00 7,0 7,0 - 74 40 89 48 WSW - -
24.05.2017 07:00:00 6,2 6,2 - 68 37 93 50 W - -
24.05.2017 06:00:00 5,8 5,8 - 74 40 96 52 WSW - -
24.05.2017 05:00:00 4,8 4,8 - 74 40 89 48 WSW - -
24.05.2017 04:00:00 3,9 3,9 - 65 35 89 48 WSW - -
24.05.2017 03:00:00 4,2 4,2 - 68 37 87 47 W - -
24.05.2017 02:00:00 4,5 4,5 - 65 35 93 50 WSW - -
24.05.2017 01:00:00 4,8 4,8 - 68 37 94 51 WSW - -
24.05.2017 00:00:00 5,8 5,8 - 80 43 102 55 WSW - -
23.05.2017 23:00:00 6,0 6,0 - 74 40 98 53 WSW - -
23.05.2017 22:00:00 6,6 6,6 - 67 36 96 52 WSW - -
23.05.2017 21:00:00 6,7 6,5 - 68 37 96 52 WSW - -
23.05.2017 20:00:00 6,9 6,8 - 61 33 80 43 WSW - -
23.05.2017 19:00:00 6,2 5,6 - 52 28 76 41 WSW - -
23.05.2017 18:00:00 5,1 4,4 - 41 22 55 30 SW - -
23.05.2017 17:00:00 3,9 3,1 - 37 20 59 32 WSW - -
23.05.2017 16:00:00 5,1 1,2 - 41 22 59 32 WSW - -
23.05.2017 15:00:00 6,0 1,2 - 39 21 59 32 W - -
23.05.2017 14:00:00 4,7 1,1 - 50 27 68 37 W - -
23.05.2017 13:00:00 3,7 -0,7 - 54 29 78 42 WSW - -
23.05.2017 12:00:00 3,0 0,0 - 57 31 91 49 WSW - -
23.05.2017 11:00:00 2,2 1,4 - 57 31 81 44 WSW - -
23.05.2017 10:00:00 1,9 1,2 - 54 29 78 42 W - -
23.05.2017 09:00:00 1,4 0,7 - 61 33 80 43 WSW - -
23.05.2017 08:00:00 1,1 0,7 - 59 32 78 42 WSW - -
23.05.2017 07:00:00 1,1 1,1 - 57 31 83 45 WSW - -
23.05.2017 06:00:00 1,2 1,2 - 65 35 85 46 WSW - -
23.05.2017 05:00:00 1,3 1,3 - 59 32 87 47 WSW - -
23.05.2017 04:00:00 1,2 1,2 - 67 36 87 47 WSW - -
23.05.2017 03:00:00 1,0 1,0 - 63 34 87 47 WSW - -
23.05.2017 02:00:00 1,1 1,1 - 72 39 89 48 WSW - -
23.05.2017 01:00:00 1,0 1,0 - 72 39 93 50 WSW - -
23.05.2017 00:00:00 1,0 1,0 - 57 31 74 40 W - -
22.05.2017 23:00:00 0,8 0,8 - 54 29 67 36 W - -
22.05.2017 22:00:00 1,6 1,6 - 48 26 74 40 WSW 0,3 -
22.05.2017 21:00:00 2,2 2,2 - 59 32 80 43 WSW - -
22.05.2017 20:00:00 6,1 6,1 - 44 24 91 49 S - -
22.05.2017 19:00:00 6,2 6,2 - 59 32 91 49 SSE - -

tt = temperature
td = dewpoint
tt 5cm = temperature 5cm
ff = wind speed
fx = gusts
dd = wind direction
vv = visibility
rr = precipitation

Next stations